Time;durP1;ratioP1;P1;durP2;ratioP2;P2;SDS_P1;SDS_P2;PMS_P1;PMS_P2;Temp;Humidity;BMP_temperature;BMP_pressure;BME280_temperature;BME280_humidity;BME280_pressure;Samples;Min_cycle;Max_cycle;Signal;HPM_P1;HPM_P2
2022/09/01 00:01:26;;;;;;;3.67;1.15;;;;;;;-148.88;54.94;75951.91;5054111;28;20032;-74
2022/09/01 00:03:54;;;;;;;2.97;0.98;;;;;;;-148.88;55.52;75960.03;5055441;28;20028;-75
2022/09/01 00:06:22;;;;;;;5.57;1.23;;;;;;;-148.88;55.47;75955.97;5054077;28;20017;-75
2022/09/01 00:08:49;;;;;;;3.22;0.98;;;;;;;-148.88;55.64;75966.13;5054319;28;20035;-74
2022/09/01 00:11:14;;;;;;;3.35;1.13;;;;;;;-148.88;56.23;75974.25;5055282;28;20025;-74
2022/09/01 00:13:40;;;;;;;2.60;1.13;;;;;;;-148.88;56.25;75976.28;5055333;28;20483;-74
2022/09/01 00:16:05;;;;;;;1.98;1.10;;;;;;;-148.88;56.39;75972.22;5055078;28;20025;-74
2022/09/01 00:18:31;;;;;;;3.33;1.20;;;;;;;-148.88;56.77;75976.28;5054920;28;20025;-74
2022/09/01 00:20:58;;;;;;;5.80;1.45;;;;;;;-148.88;57.19;75986.44;5054995;28;20395;-74
2022/09/01 00:23:25;;;;;;;3.08;1.23;;;;;;;-148.88;57.06;75996.59;5055070;28;20029;-74
2022/09/01 00:25:51;;;;;;;5.38;1.30;;;;;;;-148.88;57.16;75994.56;5055016;28;20094;-74
2022/09/01 00:28:16;;;;;;;2.72;1.17;;;;;;;-148.88;57.58;76004.72;5070211;28;20443;-74
2022/09/01 00:30:41;;;;;;;5.13;1.45;;;;;;;-148.88;57.94;76008.78;5055300;28;20025;-74
2022/09/01 00:33:07;;;;;;;4.15;1.67;;;;;;;-148.88;58.01;76012.84;5054827;28;20372;-74
2022/09/01 00:35:33;;;;;;;2.15;1.30;;;;;;;-148.88;58.38;76041.28;5054645;28;20025;-74
2022/09/01 00:37:58;;;;;;;4.60;1.50;;;;;;;-148.88;58.95;76037.22;5054571;28;20029;-74
2022/09/01 00:40:24;;;;;;;7.07;1.65;;;;;;;-148.88;59.02;76041.28;5054662;28;20341;-74
2022/09/01 00:42:49;;;;;;;2.95;1.10;;;;;;;-148.88;58.93;76039.25;5054795;28;20036;-74
2022/09/01 00:45:15;;;;;;;3.67;1.30;;;;;;;-148.88;59.20;76045.34;5069940;28;20108;-75
2022/09/01 00:47:41;;;;;;;2.97;1.10;;;;;;;-148.88;59.45;76033.16;5069607;28;20029;-74
2022/09/01 00:50:08;;;;;;;5.55;1.40;;;;;;;-148.88;59.20;76039.25;5069711;28;20096;-74
2022/09/01 00:52:42;;;;;;;3.78;1.17;;;;;;;-148.88;59.70;76049.41;5054261;28;20503;-74
2022/09/01 00:55:16;;;;;;;3.88;1.40;;;;;;;-148.88;59.93;76041.28;5054177;28;20056;-74
2022/09/01 00:57:41;;;;;;;;;;;;;;;-148.88;59.76;76041.28;5055099;28;20024;-74
2022/09/01 01:00:10;;;;;;;4.00;1.27;;;;;;;-148.88;59.80;76035.19;5054257;28;19909;-74
2022/09/01 01:02:37;;;;;;;4.10;1.20;;;;;;;-148.88;60.26;76053.47;5054233;28;20020;-74
2022/09/01 01:05:04;;;;;;;3.25;1.13;;;;;;;-148.88;60.38;76053.47;5054472;28;20033;-74
2022/09/01 01:07:29;;;;;;;3.10;1.10;;;;;;;-148.88;60.22;76055.50;5054025;28;20033;-74
2022/09/01 01:09:56;;;;;;;2.80;1.30;;;;;;;-148.88;60.46;76049.41;5052947;28;20498;-75
2022/09/01 01:12:22;;;;;;;3.97;1.30;;;;;;;-148.88;60.74;76065.66;5054184;28;20025;-74
2022/09/01 01:14:49;;;;;;;2.97;1.20;;;;;;;-148.88;60.76;76059.56;5054305;28;20032;-74
2022/09/01 01:17:16;;;;;;;4.00;1.40;;;;;;;-148.88;61.11;76073.78;5054077;28;20211;-74
2022/09/01 01:23:01;;;;;;;4.45;1.33;;;;;;;-148.88;61.55;76077.84;5054107;28;20079;-74
2022/09/01 01:25:38;;;;;;;2.95;1.20;;;;;;;-148.88;61.76;76081.91;5069277;28;20025;-74
2022/09/01 01:28:15;;;;;;;1.75;1.00;;;;;;;-148.88;61.87;76092.06;5053949;28;20068;-74
2022/09/01 01:30:49;;;;;;;2.55;1.25;;;;;;;-148.88;62.07;76085.97;5054116;28;20032;-74
2022/09/01 01:33:16;;;;;;;3.55;1.20;;;;;;;-148.88;61.93;76085.97;5053817;28;20036;-74
2022/09/01 01:35:42;;;;;;;2.90;1.30;;;;;;;-148.88;62.00;76081.91;5068877;28;20025;-75
2022/09/01 01:38:08;;;;;;;2.50;1.33;;;;;;;-148.88;61.85;76090.03;5053593;28;20016;-74
2022/09/01 01:40:34;;;;;;;4.22;1.60;;;;;;;-148.88;62.12;76094.09;5052070;28;20071;-74
2022/09/01 01:43:00;;;;;;;3.45;1.30;;;;;;;-148.88;62.76;76110.34;5052689;28;20044;-74
2022/09/01 01:45:27;;;;;;;2.15;1.13;;;;;;;-148.88;62.84;76112.41;5052016;28;20028;-74
2022/09/01 01:47:53;;;;;;;2.72;1.42;;;;;;;-148.88;62.80;76114.41;5053314;28;20033;-74
2022/09/01 01:50:28;;;;;;;2.53;1.30;;;;;;;-148.88;63.37;76122.56;5053466;28;20036;-74
2022/09/01 01:52:56;;;;;;;2.53;1.20;;;;;;;-148.88;63.00;76112.41;5068672;28;20029;-75
2022/09/01 01:55:22;;;;;;;3.95;1.10;;;;;;;-148.88;63.24;76114.41;5053298;28;20048;-74
2022/09/01 01:57:48;;;;;;;4.22;1.33;;;;;;;-148.88;63.43;76112.41;5053017;28;20155;-74
2022/09/01 02:00:18;;;;;;;1.83;1.00;;;;;;;-148.88;63.15;76114.41;5053183;28;20017;-74
2022/09/01 02:02:51;;;;;;;2.95;1.10;;;;;;;-148.88;63.14;76114.41;5068465;28;20029;-75
2022/09/01 02:05:30;;;;;;;6.07;1.45;;;;;;;-148.88;63.38;76116.44;5068474;28;20025;-74
2022/09/01 02:08:03;;;;;;;2.60;1.30;;;;;;;-148.88;63.63;76108.31;5053772;28;20037;-74
2022/09/01 02:10:35;;;;;;;2.65;1.13;;;;;;;-148.88;63.65;76110.34;5069378;28;20104;-74
2022/09/01 02:13:05;;;;;;;4.07;1.10;;;;;;;-148.88;63.49;76122.56;5053890;28;20104;-74
2022/09/01 02:15:34;;;;;;;3.17;1.10;;;;;;;-148.88;63.68;76122.56;5052428;28;20387;-74
2022/09/01 02:18:00;;;;;;;2.90;1.00;;;;;;;-148.88;64.49;76134.72;5068898;28;20502;-74
2022/09/01 02:20:31;;;;;;;2.65;1.02;;;;;;;-148.88;64.91;76134.72;5053544;28;20083;-74
2022/09/01 02:22:57;;;;;;;3.30;1.05;;;;;;;-148.88;64.96;76134.72;5051992;28;20450;-74
2022/09/01 02:25:22;;;;;;;2.50;1.00;;;;;;;-148.88;65.01;76130.69;5051986;28;20021;-74
2022/09/01 02:27:52;;;;;;;2.85;1.13;;;;;;;-148.88;64.89;76124.56;5053086;28;20053;-74
2022/09/01 02:30:18;;;;;;;4.07;1.10;;;;;;;-148.88;65.26;76122.56;5053030;28;20021;-74
2022/09/01 02:32:43;;;;;;;4.28;1.30;;;;;;;-148.88;65.12;76126.59;5053018;28;20100;-74
2022/09/01 02:35:10;;;;;;;5.85;1.20;;;;;;;-148.88;65.09;76122.56;5052982;28;20464;-74
2022/09/01 02:37:38;;;;;;;2.65;1.05;;;;;;;-148.88;65.14;76126.59;5053195;28;20049;-74
2022/09/01 02:40:05;;;;;;;2.80;1.30;;;;;;;-148.88;65.38;76122.56;5052942;28;20103;-74
2022/09/01 02:42:30;;;;;;;3.83;1.52;;;;;;;-148.88;65.37;76116.44;5052821;28;20086;-74
2022/09/01 02:44:57;;;;;;;4.22;1.20;;;;;;;-148.88;65.34;76126.59;5052909;28;20021;-74
2022/09/01 02:47:24;;;;;;;3.60;1.70;;;;;;;-148.88;65.71;76130.69;5052792;28;20055;-74
2022/09/01 02:49:49;;;;;;;3.53;1.23;;;;;;;-148.88;65.48;76122.56;5068237;28;20021;-74
2022/09/01 02:52:16;;;;;;;3.15;1.40;;;;;;;-148.88;65.73;76130.69;5052822;28;20407;-75
2022/09/01 02:54:44;;;;;;;4.05;1.27;;;;;;;-148.88;65.99;76130.69;5051735;28;20025;-74
2022/09/01 02:57:11;;;;;;;6.95;1.55;;;;;;;-148.88;66.31;76136.78;5051636;28;20029;-74
2022/09/01 02:59:37;;;;;;;3.42;1.45;;;;;;;-148.88;66.18;76124.56;5062169;22;20182;-84
2022/09/01 03:02:03;;;;;;;2.10;1.30;;;;;;;-148.88;66.31;76130.69;5056173;28;20052;-84
2022/09/01 03:04:32;;;;;;;5.45;2.03;;;;;;;-148.88;66.69;76134.72;5056815;28;20032;-84
2022/09/01 03:06:58;;;;;;;2.90;1.30;;;;;;;-148.88;66.41;76132.72;5070748;28;20017;-83
2022/09/01 03:09:23;;;;;;;4.32;1.30;;;;;;;-148.88;66.69;76134.72;5056600;28;20394;-84
2022/09/01 03:11:51;;;;;;;2.38;1.15;;;;;;;-148.88;66.74;76138.81;5091339;22;20040;-83
2022/09/01 03:14:18;;;;;;;3.05;1.30;;;;;;;-148.88;67.08;76140.84;5033371;28;20029;-83
2022/09/01 03:16:44;;;;;;;2.17;1.20;;;;;;;-148.88;67.82;76144.91;5033324;28;20024;-83
2022/09/01 03:19:38;;;;;;;3.72;1.50;;;;;;;-148.88;68.62;76146.94;5031293;28;20014;-83
2022/09/01 03:22:04;;;;;;;5.22;1.45;;;;;;;-148.88;68.54;76138.81;5032031;28;20037;-83
2022/09/01 03:24:31;;;;;;;2.67;1.40;;;;;;;-148.88;68.82;76134.72;5032206;28;20025;-82
2022/09/01 03:26:56;;;;;;;4.55;2.00;;;;;;;-148.88;68.94;76142.88;5034214;28;20417;-82
2022/09/01 03:29:22;;;;;;;3.55;1.40;;;;;;;-148.88;68.56;76134.72;5033353;28;20040;-83
2022/09/01 03:31:51;;;;;;;1.67;1.10;;;;;;;-148.88;68.56;76134.72;5033582;28;20026;-82
2022/09/01 03:34:18;;;;;;;3.13;1.40;;;;;;;-148.88;68.78;76138.81;5033724;28;20534;-82
2022/09/01 03:36:48;;;;;;;3.08;1.20;;;;;;;-148.88;68.53;76144.91;5033338;28;20022;-83
2022/09/01 03:39:16;;;;;;;2.90;1.20;;;;;;;-148.88;68.83;76136.78;5033385;28;20037;-83
2022/09/01 03:41:42;;;;;;;2.33;1.40;;;;;;;-148.88;68.91;76140.84;5033414;28;20021;-83
2022/09/01 03:44:09;;;;;;;2.58;1.30;;;;;;;-148.88;70.54;76173.34;5033444;28;20017;-83
2022/09/01 03:46:43;;;;;;;3.47;1.67;;;;;;;-148.88;70.53;76163.19;5033146;28;20101;-83
2022/09/01 03:49:14;;;;;;;2.97;1.55;;;;;;;-148.88;70.71;76161.16;5032118;28;20021;-84
2022/09/01 03:51:41;;;;;;;3.83;1.45;;;;;;;-148.88;70.50;76161.16;5033017;28;20431;-83
2022/09/01 03:54:09;;;;;;;3.28;1.75;;;;;;;-148.88;71.25;76171.31;5033253;28;20021;-83
2022/09/01 03:56:37;;;;;;;7.28;1.60;;;;;;;-148.88;71.14;76171.31;5049336;28;20472;-83
2022/09/01 03:59:03;;;;;;;3.67;1.70;;;;;;;-148.88;71.50;76175.38;5048363;28;20025;-83
2022/09/01 04:01:36;;;;;;;3.40;1.65;;;;;;;-148.88;71.73;76173.34;5033537;28;20029;-83
2022/09/01 04:04:15;;;;;;;2.65;1.33;;;;;;;-148.88;71.31;76165.22;5032175;28;20033;-83
2022/09/01 04:06:43;;;;;;;2.92;1.35;;;;;;;-148.88;72.30;76173.34;5035024;28;20435;-83
2022/09/01 04:09:09;;;;;;;3.08;1.23;;;;;;;-148.88;73.13;76191.63;5038115;28;20030;-84
2022/09/01 04:11:38;;;;;;;3.80;1.75;;;;;;;-148.88;73.44;76191.63;5034798;28;20032;-85
2022/09/01 04:14:03;;;;;;;3.35;1.85;;;;;;;-148.88;72.98;76187.56;5034963;28;20048;-83
2022/09/01 04:19:25;;;;;;;2.28;1.33;;;;;;;-148.88;72.99;76197.72;5036386;28;20024;-83
2022/09/01 04:21:59;;;;;;;3.85;1.42;;;;;;;-148.88;72.88;76191.63;5036007;28;20476;-83
2022/09/01 04:24:30;;;;;;;2.10;1.50;;;;;;;-148.88;73.02;76191.63;5036803;28;20026;-83
2022/09/01 04:27:00;;;;;;;5.72;1.70;;;;;;;-148.88;73.15;76203.81;5035288;28;20025;-83
2022/09/01 04:29:26;;;;;;;5.68;1.70;;;;;;;-148.88;73.39;76209.91;5034374;28;20389;-83
2022/09/01 04:32:00;;;;;;;8.95;2.30;;;;;;;-148.88;73.15;76220.06;5036160;28;20495;-82
2022/09/01 04:34:26;;;;;;;7.35;1.90;;;;;;;-148.88;73.38;76224.13;5036191;28;20021;-83
2022/09/01 04:36:53;;;;;;;7.80;2.10;;;;;;;-148.88;73.50;76228.19;5035023;28;20387;-83
2022/09/01 04:39:27;;;;;;;7.28;2.30;;;;;;;-148.88;73.47;76228.19;5035984;28;20056;-88
2022/09/01 04:41:52;;;;;;;5.78;1.92;;;;;;;-148.88;73.49;76232.25;5033724;28;20028;-88
2022/09/01 04:44:18;;;;;;;9.35;2.17;;;;;;;-148.88;73.79;76236.31;5034021;28;20407;-88
2022/09/01 04:46:56;;;;;;;6.18;2.35;;;;;;;-148.88;73.73;76240.38;5034237;28;20030;-88
2022/09/01 04:49:32;;;;;;;4.80;1.92;;;;;;;-148.88;73.59;76236.31;5035142;28;20136;-89
2022/09/01 04:52:31;;;;;;;7.65;1.88;;;;;;;-148.88;74.24;76248.50;5051242;28;20432;-88
2022/09/01 04:55:07;;;;;;;4.72;2.40;;;;;;;-148.88;74.86;76248.50;5035459;28;20071;-89
2022/09/01 04:57:48;;;;;;;5.32;2.05;;;;;;;-148.88;74.35;76256.63;5033926;28;20033;-88
2022/09/01 05:00:59;;;;;;;5.65;1.98;;;;;;;-148.88;75.33;76248.50;5033524;28;20124;-88
2022/09/01 05:04:07;;;;;;;3.95;1.80;;;;;;;-148.88;75.17;76248.50;5034341;28;20060;-89
2022/09/01 05:06:41;;;;;;;3.72;1.90;;;;;;;-148.88;75.34;76260.69;5035493;28;20025;-88
2022/09/01 05:09:16;;;;;;;4.38;2.17;;;;;;;-148.88;75.50;76270.84;5033681;28;20048;-89
2022/09/01 05:11:49;;;;;;;3.28;1.90;;;;;;;-148.88;76.16;76260.69;5034885;28;20036;-89
2022/09/01 05:14:20;;;;;;;7.70;1.93;;;;;;;-148.88;75.95;76264.75;5034536;28;20472;-89
2022/09/01 05:16:46;;;;;;;4.20;2.10;;;;;;;-148.88;76.86;76258.66;5034029;28;20021;-89
2022/09/01 05:19:23;;;;;;;9.93;2.45;;;;;;;-148.88;76.47;76254.59;5034410;28;20361;-89
2022/09/01 05:21:56;;;;;;;13.82;3.00;;;;;;;-148.88;76.46;76256.63;5033864;28;20025;-89
2022/09/01 05:24:30;;;;;;;;;;;;;;;-148.88;76.75;76252.56;5034209;28;20112;-89
2022/09/01 05:26:57;;;;;;;7.55;2.35;;;;;;;-148.88;77.51;76252.56;5033020;28;19981;-89
2022/09/01 05:29:43;;;;;;;5.22;2.17;;;;;;;-148.88;76.83;76244.44;5032938;28;20080;-90
2022/09/01 05:32:24;;;;;;;8.05;2.00;;;;;;;-148.88;77.43;76244.44;5033602;28;20037;-89
2022/09/01 05:35:07;;;;;;;4.20;2.30;;;;;;;-148.88;78.96;76270.84;5034508;28;20026;-89
2022/09/01 05:37:42;;;;;;;3.45;2.35;;;;;;;-148.88;80.04;76289.13;5033353;28;20116;-88
2022/09/01 05:40:08;;;;;;;4.43;2.38;;;;;;;-148.88;80.39;76281.00;5037066;28;20041;-88
2022/09/01 05:42:38;;;;;;;5.40;2.35;;;;;;;-148.88;79.79;76256.63;5034623;28;20063;-88
2022/09/01 05:45:04;;;;;;;3.40;2.08;;;;;;;-148.88;79.53;76256.63;5035314;28;20061;-88
2022/09/01 05:47:29;;;;;;;4.30;2.10;;;;;;;-148.88;80.31;76256.63;5034563;28;20017;-88
2022/09/01 05:50:09;;;;;;;4.15;2.53;;;;;;;-148.88;80.03;76248.50;5032599;28;20400;-88
2022/09/01 05:53:27;;;;;;;4.78;2.17;;;;;;;-148.88;79.48;76236.31;5032852;28;20072;-88
2022/09/01 05:58:28;;;;;;;3.33;2.25;;;;;;;-148.88;80.30;76220.06;5026561;28;20079;-88
2022/09/01 06:00:57;;;;;;;5.43;2.00;;;;;;;-148.88;79.61;76209.91;5032729;28;20033;-88
2022/09/01 06:03:32;;;;;;;3.72;2.15;;;;;;;-148.88;79.35;76199.75;5032506;28;20021;-89
2022/09/01 06:06:11;;;;;;;5.28;1.95;;;;;;;-148.88;79.03;76191.63;5033238;28;20045;-88
2022/09/01 06:08:37;;;;;;;3.97;2.28;;;;;;;-148.88;79.30;76179.44;5033307;28;20123;-88
2022/09/01 06:11:12;;;;;;;3.80;2.30;;;;;;;-148.88;79.39;76167.25;5033871;28;20022;-88
2022/09/01 06:13:55;;;;;;;3.40;1.90;;;;;;;-148.88;78.94;76169.28;5033036;28;20377;-88
2022/09/01 06:16:24;;;;;;;4.63;2.17;;;;;;;-148.88;78.88;76155.06;5034471;28;20079;-88
2022/09/01 06:18:54;;;;;;;3.30;2.10;;;;;;;-148.88;78.90;76148.97;5037461;28;20048;-88
2022/09/01 06:21:21;;;;;;;4.53;2.00;;;;;;;-148.88;78.79;76142.88;5031871;28;20049;-88
2022/09/01 06:23:49;;;;;;;6.13;2.67;;;;;;;-148.88;78.40;76128.66;5032096;28;20160;-88
2022/09/01 06:26:35;;;;;;;3.63;2.28;;;;;;;-148.88;77.54;76116.44;5048557;28;20025;-88
2022/09/01 06:29:17;;;;;;;4.00;2.00;;;;;;;-148.88;77.56;76108.31;5032264;28;20392;-88
2022/09/01 06:31:51;;;;;;;5.05;2.30;;;;;;;-148.88;77.07;76106.28;5031805;28;20029;-88
2022/09/01 06:34:26;;;;;;;4.35;2.33;;;;;;;-148.88;76.86;76098.16;5032649;28;20408;-88
2022/09/01 06:36:52;;;;;;;6.97;2.00;;;;;;;-148.88;76.77;76090.03;5033378;28;20025;-89
2022/09/01 06:39:30;;;;;;;4.45;2.38;;;;;;;-148.88;76.73;76083.94;5032995;28;20095;-88
2022/09/01 06:41:56;;;;;;;4.30;2.10;;;;;;;-148.88;76.44;76071.75;5031992;28;20029;-88
2022/09/01 06:44:37;;;;;;;5.15;2.67;;;;;;;-148.88;76.14;76073.78;5031699;28;20022;-88
2022/09/01 06:47:09;;;;;;;4.20;2.20;;;;;;;-148.88;76.13;76065.66;5031840;28;20025;-89
2022/09/01 06:49:35;;;;;;;2.78;1.92;;;;;;;-148.88;75.21;76055.50;5032105;28;20032;-88
2022/09/01 06:52:07;;;;;;;4.70;2.35;;;;;;;-148.88;74.84;76045.34;5032242;28;20029;-89
2022/09/01 06:54:33;;;;;;;3.13;2.08;;;;;;;-148.88;73.84;76045.34;5032131;28;20037;-89
2022/09/01 06:56:58;;;;;;;3.80;2.03;;;;;;;-148.88;74.35;76033.16;5031740;28;20037;-88
2022/09/01 06:59:46;;;;;;;4.32;2.20;;;;;;;-148.88;73.87;76025.03;5048497;28;20013;-88
2022/09/01 07:02:15;;;;;;;4.70;2.20;;;;;;;-148.88;74.21;76023.00;5031949;28;20022;-88
2022/09/01 07:04:55;;;;;;;4.57;2.38;;;;;;;-148.88;73.77;76020.97;5031476;28;20522;-88
2022/09/01 07:07:24;;;;;;;4.68;2.13;;;;;;;-148.88;73.57;76008.78;5031958;28;20034;-88
2022/09/01 07:09:49;;;;;;;4.13;2.10;;;;;;;-148.88;73.37;76004.72;5032776;28;20027;-88
2022/09/01 07:12:34;;;;;;;4.40;2.17;;;;;;;-148.88;73.27;75982.38;5031270;28;20047;-88
2022/09/01 07:15:26;;;;;;;3.53;2.22;;;;;;;-148.88;72.97;75970.19;5031369;28;20104;-88
2022/09/01 07:17:57;;;;;;;3.90;2.15;;;;;;;-148.88;72.75;75960.03;5031916;28;20045;-88
2022/09/01 07:20:27;;;;;;;6.40;2.05;;;;;;;-148.88;73.07;75943.78;5031918;28;20120;-88
2022/09/01 07:22:55;;;;;;;3.70;2.00;;;;;;;-148.88;71.64;75915.34;5031761;28;20472;-88
2022/09/01 07:25:59;;;;;;;3.65;1.90;;;;;;;-148.88;71.15;75899.09;5031898;28;20060;-88
2022/09/01 07:28:28;;;;;;;3.42;2.05;;;;;;;-148.88;70.70;75888.94;5032930;28;20022;-88
2022/09/01 07:30:55;;;;;;;3.97;1.80;;;;;;;-148.88;69.35;75868.63;5032576;28;20025;-88
2022/09/01 07:33:33;;;;;;;5.35;1.80;;;;;;;-148.88;68.91;75846.28;5047620;28;20049;-89
2022/09/01 07:35:59;;;;;;;3.72;1.75;;;;;;;-148.88;68.58;75828.00;5031505;28;20022;-88
2022/09/01 07:38:29;;;;;;;2.60;1.70;;;;;;;-148.88;67.98;75817.84;5032245;28;20025;-89
2022/09/01 07:40:55;;;;;;;4.03;1.45;;;;;;;-148.88;67.89;75797.53;5031939;28;20028;-88
2022/09/01 07:43:28;;;;;;;4.05;1.70;;;;;;;-148.88;67.44;75793.47;5035111;28;20021;-88
2022/09/01 07:46:06;;;;;;;;;;;;;;;-148.88;66.63;75781.28;5036297;28;20029;-88
2022/09/01 07:48:44;;;;;;;3.17;1.30;;;;;;;-148.88;66.31;75750.81;5035284;28;20011;-88
2022/09/01 07:51:14;;;;;;;4.63;1.50;;;;;;;-148.88;65.56;75732.53;5034836;28;20049;-88
2022/09/01 07:53:40;;;;;;;6.07;1.40;;;;;;;-148.88;64.38;75724.41;5076889;22;20096;-75
2022/09/01 07:56:10;;;;;;;4.30;1.50;;;;;;;-148.88;63.73;75720.34;5055558;28;20467;-75
2022/09/01 07:58:37;;;;;;;4.13;1.30;;;;;;;-148.88;64.26;75724.41;5055221;28;20017;-75
2022/09/01 08:01:07;;;;;;;5.65;1.60;;;;;;;-148.88;63.40;75700.03;5054018;28;20028;-75
2022/09/01 08:03:33;;;;;;;3.42;1.27;;;;;;;-148.88;63.26;75693.94;5055645;28;20025;-75
2022/09/01 08:06:19;;;;;;;2.38;1.30;;;;;;;-148.88;63.10;75677.69;5055885;28;20032;-76
2022/09/01 08:08:46;;;;;;;4.32;1.20;;;;;;;-148.88;62.80;75659.41;5055748;28;20059;-75
2022/09/01 08:11:24;;;;;;;4.53;1.83;;;;;;;-148.88;61.75;75649.25;5055904;28;20083;-75
2022/09/01 08:13:52;;;;;;;3.65;1.50;;;;;;;-148.88;61.96;75633.00;5054430;28;20033;-76
2022/09/01 08:16:19;;;;;;;3.70;1.38;;;;;;;-148.88;60.69;75626.91;5055858;28;20441;-76
2022/09/01 08:18:46;;;;;;;3.10;1.10;;;;;;;-148.88;61.53;75608.63;5055810;28;20078;-75
2022/09/01 08:21:12;;;;;;;3.28;1.17;;;;;;;-148.88;60.84;75594.44;5055572;28;20056;-75
2022/09/01 08:23:38;;;;;;;3.75;1.20;;;;;;;-148.88;60.13;75580.22;5055757;28;20053;-75
2022/09/01 08:26:06;;;;;;;3.42;1.48;;;;;;;-148.88;59.80;75576.13;5055500;28;20444;-75
2022/09/01 08:28:32;;;;;;;4.28;1.17;;;;;;;-148.88;59.19;75557.88;5055469;28;20044;-75
2022/09/01 08:30:58;;;;;;;3.80;1.30;;;;;;;-148.88;58.24;75541.63;5055384;28;20036;-75
2022/09/01 08:33:24;;;;;;;3.67;1.25;;;;;;;-148.88;57.89;75533.50;5055324;28;20108;-75
2022/09/01 08:35:50;;;;;;;4.05;1.20;;;;;;;-148.88;56.65;75509.13;5055332;28;20024;-75
2022/09/01 08:38:15;;;;;;;3.85;1.30;;;;;;;-148.88;55.75;75496.94;5055267;28;20017;-76
2022/09/01 08:40:48;;;;;;;1.50;0.90;;;;;;;-148.88;55.56;75501.00;5055288;28;20040;-75
2022/09/01 08:43:43;;;;;;;3.00;1.33;;;;;;;-148.88;55.89;75472.56;5055186;28;20035;-75
2022/09/01 08:46:20;;;;;;;4.45;1.35;;;;;;;-148.88;56.07;75458.34;5055425;28;20028;-76
2022/09/01 08:48:53;;;;;;;4.28;1.10;;;;;;;-148.88;54.90;75431.94;5055039;28;20489;-76
2022/09/01 08:51:34;;;;;;;3.88;1.30;;;;;;;-148.88;54.51;75415.69;5053844;28;20033;-76
2022/09/01 08:54:17;;;;;;;3.83;1.17;;;;;;;-148.88;53.08;75385.22;5055006;28;20095;-75
2022/09/01 08:56:43;;;;;;;5.32;1.23;;;;;;;-148.88;52.98;75379.13;5055258;28;20017;-75
2022/09/01 08:59:09;;;;;;;3.67;1.20;;;;;;;-148.88;53.18;75381.16;5054815;28;20028;-76
2022/09/01 09:01:44;;;;;;;3.25;1.60;;;;;;;-148.88;53.11;75342.56;5054819;28;20029;-75
2022/09/01 09:04:16;;;;;;;4.20;1.30;;;;;;;-148.88;51.28;75322.25;5055307;28;20143;-75
2022/09/01 09:06:56;;;;;;;3.75;1.30;;;;;;;-148.88;51.04;75306.00;5055282;28;20425;-76
2022/09/01 09:09:32;;;;;;;4.15;1.02;;;;;;;-148.88;50.32;75308.03;5054832;28;20035;-75
2022/09/01 09:12:35;;;;;;;3.65;1.30;;;;;;;-148.88;50.80;75277.59;5054946;28;20471;-75
2022/09/01 09:15:10;;;;;;;3.00;1.10;;;;;;;-148.88;49.42;75257.28;5031958;28;20047;-76
2022/09/01 09:17:42;;;;;;;6.53;1.10;;;;;;;-148.88;49.47;75232.91;5054797;28;20068;-75
2022/09/01 09:20:08;;;;;;;2.85;1.30;;;;;;;-148.88;50.84;75216.66;5054536;28;20021;-76
2022/09/01 09:22:33;;;;;;;4.15;1.30;;;;;;;-148.88;50.24;75204.47;5054441;28;20395;-75
2022/09/01 09:25:13;;;;;;;3.88;1.70;;;;;;;-148.88;49.14;75186.19;5054384;28;20024;-75
2022/09/01 09:27:41;;;;;;;3.88;1.33;;;;;;;-148.88;49.08;75165.88;5054431;28;20459;-76
2022/09/01 09:30:08;;;;;;;4.15;1.30;;;;;;;-148.88;48.50;75133.38;5054487;28;20095;-75
2022/09/01 09:32:59;;;;;;;4.35;1.10;;;;;;;-148.88;47.32;75133.38;5054350;28;20035;-76
2022/09/01 09:35:37;;;;;;;2.83;1.10;;;;;;;-148.88;45.94;75100.88;5054533;28;20016;-76
2022/09/01 09:38:17;;;;;;;3.45;1.08;;;;;;;-148.88;45.61;75082.63;5054053;28;20025;-75
2022/09/01 09:41:06;;;;;;;4.22;1.00;;;;;;;-148.88;45.01;75052.16;5054394;28;20029;-75
2022/09/01 09:43:35;;;;;;;2.35;1.00;;;;;;;-148.88;44.59;75025.75;5054022;28;20021;-75
2022/09/01 09:46:36;;;;;;;4.82;1.00;;;;;;;-148.88;43.67;75011.53;5053984;28;20029;-75
2022/09/01 09:49:22;;;;;;;2.58;1.15;;;;;;;-148.88;43.34;75017.63;5052593;28;20028;-75
2022/09/01 09:52:08;;;;;;;2.88;0.98;;;;;;;-148.88;43.41;75017.63;5054180;28;20057;-75
2022/09/01 09:54:36;;;;;;;6.05;1.30;;;;;;;-148.88;43.28;74981.06;5052617;28;20082;-75
2022/09/01 09:57:07;;;;;;;5.07;1.60;;;;;;;-148.88;43.23;74970.91;5053841;28;20025;-75
2022/09/01 09:59:38;;;;;;;4.03;0.88;;;;;;;-148.88;42.31;74940.47;5053636;28;20017;-75
2022/09/01 10:02:41;;;;;;;3.47;0.90;;;;;;;-148.88;42.24;74942.47;5054032;28;20097;-76
2022/09/01 10:05:34;;;;;;;2.65;0.90;;;;;;;-148.88;42.57;74895.78;4992091;28;20509;-75
2022/09/01 10:08:00;;;;;;;4.40;1.00;;;;;;;-148.88;41.60;74891.72;5053537;28;20044;-76
2022/09/01 10:10:41;;;;;;;2.92;1.00;;;;;;;-148.88;41.27;74877.50;5054195;28;20456;-76
2022/09/01 10:13:13;;;;;;;3.13;0.93;;;;;;;-148.88;41.11;74863.28;5053825;28;20025;-76
2022/09/01 10:15:42;;;;;;;4.82;1.00;;;;;;;-148.88;40.78;74855.16;5053476;28;20507;-75
2022/09/01 10:18:16;;;;;;;2.45;0.90;;;;;;;-148.88;40.30;74794.25;5053662;28;20028;-75
2022/09/01 10:20:52;;;;;;;2.90;0.68;;;;;;;-148.88;39.82;74761.75;5053717;28;20029;-75
2022/09/01 10:23:18;;;;;;;2.05;0.80;;;;;;;-148.88;39.20;74790.19;5053495;28;20104;-75
2022/09/01 10:25:44;;;;;;;2.15;0.80;;;;;;;-148.88;36.77;74753.63;5053340;28;20435;-75
2022/09/01 10:28:16;;;;;;;2.53;0.65;;;;;;;-148.88;36.96;74749.56;5053235;28;20021;-77
2022/09/01 10:30:44;;;;;;;1.65;0.60;;;;;;;-148.88;37.22;74782.06;5049283;28;20507;-77
2022/09/01 10:33:11;;;;;;;2.58;0.57;;;;;;;-148.88;37.01;74769.88;5053939;28;20089;-75
2022/09/01 10:35:44;;;;;;;4.43;1.15;;;;;;;-148.88;36.55;74753.63;5053314;28;20124;-76
2022/09/01 10:38:15;;;;;;;2.50;0.80;;;;;;;-148.88;36.82;74798.31;5052789;28;20021;-76
2022/09/01 10:40:49;;;;;;;3.35;0.82;;;;;;;-148.88;36.58;74751.59;5053052;28;20040;-76
2022/09/01 10:43:24;;;;;;;;;;;;;;;-148.88;37.11;74818.59;5052460;28;20495;-76
2022/09/01 10:45:49;;;;;;;2.63;0.93;;;;;;;-148.88;37.56;74863.28;5051836;28;19913;-75
2022/09/01 10:48:22;;;;;;;1.40;0.50;;;;;;;-148.88;37.65;74889.69;5051689;28;20028;-75
2022/09/01 10:50:53;;;;;;;3.70;1.23;;;;;;;-148.88;37.32;74954.66;5053208;28;20040;-75
2022/09/01 10:53:34;;;;;;;3.38;0.73;;;;;;;-148.88;37.55;75005.44;5052993;28;20037;-77
2022/09/01 10:56:02;;;;;;;1.85;0.60;;;;;;;-148.88;38.41;74985.13;5055585;28;20036;-78
2022/09/01 10:58:41;;;;;;;2.58;0.80;;;;;;;-148.88;38.02;74916.09;5053610;28;20017;-78
2022/09/01 11:01:07;;;;;;;2.72;0.73;;;;;;;-148.88;36.77;74926.25;5054166;28;20047;-78
2022/09/01 11:03:49;;;;;;;0.90;0.55;;;;;;;-148.88;36.03;74867.34;5054158;28;20395;-77
2022/09/01 11:07:03;;;;;;;1.73;0.60;;;;;;;-148.88;34.73;74814.53;5053176;28;20025;-74
2022/09/01 11:09:37;;;;;;;1.33;0.60;;;;;;;-148.88;34.60;74775.97;5052659;28;20040;-75
2022/09/01 11:12:39;;;;;;;4.03;0.70;;;;;;;-148.88;34.87;74798.31;5052904;28;20542;-75
2022/09/01 11:15:13;;;;;;;2.83;1.10;;;;;;;-148.88;35.44;74849.06;5053071;28;20094;-76
2022/09/01 11:17:56;;;;;;;2.88;0.70;;;;;;;-148.88;36.16;74887.66;5056550;28;20028;-75
2022/09/01 11:20:33;;;;;;;2.33;0.80;;;;;;;-148.88;35.17;74830.78;5056983;28;20028;-75
2022/09/01 11:22:58;;;;;;;2.83;0.80;;;;;;;-148.88;34.84;74826.72;5055614;28;20499;-76
2022/09/01 11:25:32;;;;;;;2.93;0.70;;;;;;;-148.88;35.29;74828.75;5056757;28;20060;-76
2022/09/01 11:28:14;;;;;;;1.08;0.60;;;;;;;-148.88;34.91;74895.78;5056578;28;20288;-76
2022/09/01 11:30:57;;;;;;;4.22;0.80;;;;;;;-148.88;34.15;74903.91;5056605;28;20037;-75
2022/09/01 11:33:45;;;;;;;1.08;0.63;;;;;;;-148.88;34.14;74820.63;5055252;28;20028;-75
2022/09/01 11:36:25;;;;;;;2.95;0.70;;;;;;;-148.88;33.76;74798.31;5056771;28;20510;-76
2022/09/01 11:38:54;;;;;;;4.72;0.70;;;;;;;-148.88;33.44;74765.81;5056456;28;20029;-75
2022/09/01 11:41:54;;;;;;;1.50;0.60;;;;;;;-148.88;33.10;74723.16;5056402;28;20025;-75
2022/09/01 11:44:26;;;;;;;2.10;0.60;;;;;;;-148.88;31.41;74688.66;5037873;28;20422;-75
2022/09/01 11:46:58;;;;;;;1.60;0.77;;;;;;;-148.88;31.00;74668.34;5056467;28;20025;-75
2022/09/01 11:49:33;;;;;;;4.00;0.60;;;;;;;-148.88;30.04;74708.94;5056152;28;20090;-76